Time;durP1;ratioP1;P1;durP2;ratioP2;P2;SDS_P1;SDS_P2;PMS_P1;PMS_P2;Temp;Humidity;BMP_temperature;BMP_pressure;BME280_temperature;BME280_humidity;BME280_pressure;Samples;Min_cycle;Max_cycle;Signal;HPM_P1;HPM_P2
2022/06/13 00:00:16;;;;;;;19.02;4.97;;;;;;;10.70;90.01;101878.94;2079565;28;26520;-64
2022/06/13 00:01:27;;;;;;;16.98;5.10;;;;;;;10.70;90.57;101868.22;2081770;28;20042;-64
2022/06/13 00:02:29;;;;;;;15.52;4.50;;;;;;;10.69;90.85;101871.81;2088260;28;29515;-64
2022/06/13 00:03:31;;;;;;;14.15;5.43;;;;;;;10.70;91.05;101868.22;2088700;28;20121;-64
2022/06/13 00:04:35;;;;;;;18.75;5.10;;;;;;;10.74;92.19;101865.53;2088440;28;25975;-64
2022/06/13 00:05:40;;;;;;;14.93;4.82;;;;;;;10.72;91.26;101870.00;2088508;28;34684;-64
2022/06/13 00:06:43;;;;;;;21.92;5.72;;;;;;;10.72;91.63;101865.53;2079673;28;24144;-64
2022/06/13 00:07:45;;;;;;;19.25;6.32;;;;;;;10.69;91.66;101861.09;2079519;28;31797;-64
2022/06/13 00:08:49;;;;;;;18.08;6.28;;;;;;;10.72;92.12;101856.63;2088291;28;27903;-63
2022/06/13 00:09:51;;;;;;;16.38;5.55;;;;;;;10.68;92.13;101853.06;2079704;28;21857;-64
2022/06/13 00:10:53;;;;;;;20.17;6.65;;;;;;;10.68;91.77;101862.00;2079790;28;22057;-64
2022/06/13 00:11:55;;;;;;;18.73;6.22;;;;;;;10.79;93.49;101847.63;2088164;28;35048;-64
2022/06/13 00:13:03;;;;;;;20.27;6.53;;;;;;;10.74;92.53;101854.81;2088436;28;20030;-64
2022/06/13 00:14:06;;;;;;;16.35;6.10;;;;;;;10.72;92.47;101849.47;2087754;28;39947;-64
2022/06/13 00:15:13;;;;;;;12.10;5.18;;;;;;;10.77;92.78;101849.44;2079391;28;20050;-64
2022/06/13 00:16:15;;;;;;;21.48;6.93;;;;;;;10.78;92.97;101846.72;2080246;28;24380;-64
2022/06/13 00:17:19;;;;;;;18.90;6.63;;;;;;;10.84;93.66;101852.03;2087950;28;27298;-64
2022/06/13 00:18:21;;;;;;;20.60;7.00;;;;;;;10.83;93.33;101857.41;2071067;28;39489;-64
2022/06/13 00:19:25;;;;;;;20.00;7.38;;;;;;;10.82;92.94;101847.56;2072093;28;22275;-64
2022/06/13 00:20:31;;;;;;;18.85;7.82;;;;;;;10.83;93.11;101852.03;2088698;28;20049;-64
2022/06/13 00:21:36;;;;;;;15.48;6.30;;;;;;;10.81;92.72;101852.06;2087960;28;34956;-64
2022/06/13 00:22:41;;;;;;;21.20;7.15;;;;;;;10.82;92.49;101850.25;2088347;28;25330;-64
2022/06/13 00:23:43;;;;;;;16.38;6.47;;;;;;;10.78;92.16;101851.19;2078901;28;32820;-64
2022/06/13 00:24:45;;;;;;;18.52;7.43;;;;;;;10.85;93.35;101852.91;2071805;28;26219;-64
2022/06/13 00:25:48;;;;;;;21.45;7.47;;;;;;;10.89;93.67;101860.00;2079778;28;30111;-64
2022/06/13 00:26:50;;;;;;;18.38;7.38;;;;;;;10.83;93.06;101850.25;2087795;28;27420;-64
2022/06/13 00:27:53;;;;;;;17.27;7.63;;;;;;;10.82;92.79;101860.97;2088913;28;20199;-64
2022/06/13 00:28:57;;;;;;;19.23;7.32;;;;;;;10.79;93.10;101856.53;2088281;28;20192;-64
2022/06/13 00:29:59;;;;;;;15.60;6.88;;;;;;;10.77;92.31;101854.78;2078923;28;28898;-64
2022/06/13 00:31:03;;;;;;;16.75;7.00;;;;;;;10.80;93.34;101857.41;2081022;28;20030;-64
2022/06/13 00:32:08;;;;;;;20.83;7.65;;;;;;;10.76;92.97;101858.34;2088023;28;26653;-64
2022/06/13 00:33:10;;;;;;;17.80;7.53;;;;;;;10.75;92.54;101857.47;2088005;28;27387;-64
2022/06/13 00:34:12;;;;;;;16.13;6.43;;;;;;;10.74;92.94;101855.69;2089147;28;20925;-64
2022/06/13 00:35:13;;;;;;;15.68;7.32;;;;;;;10.74;93.17;101852.13;2087879;28;34513;-64
2022/06/13 00:36:21;;;;;;;16.65;7.50;;;;;;;10.70;93.43;101857.50;2088515;28;20084;-65
2022/06/13 00:37:25;;;;;;;16.42;7.00;;;;;;;10.70;93.24;101861.97;2088211;28;26564;-64
2022/06/13 00:38:27;;;;;;;18.65;7.85;;;;;;;10.68;93.13;101858.44;2088221;28;26197;-64
2022/06/13 00:39:28;;;;;;;23.02;8.27;;;;;;;10.69;93.91;101861.09;2088259;28;20045;-64
2022/06/13 00:40:32;;;;;;;21.92;8.90;;;;;;;10.66;93.43;101861.13;2088018;28;23088;-64
2022/06/13 00:41:38;;;;;;;18.80;7.20;;;;;;;10.63;92.74;101855.78;2079328;28;21655;-64
2022/06/13 00:42:42;;;;;;;19.55;7.55;;;;;;;10.60;93.38;101853.13;2079263;28;26969;-64
2022/06/13 00:43:46;;;;;;;20.70;6.90;;;;;;;10.57;93.71;101852.25;2088012;28;27363;-64
2022/06/13 00:45:19;;;;;;;14.35;6.82;;;;;;;10.60;94.51;101847.75;2088062;28;25871;-64
2022/06/13 00:46:27;;;;;;;21.88;9.05;;;;;;;10.52;93.62;101852.31;2080502;28;30082;-64
2022/06/13 00:47:29;;;;;;;22.63;8.80;;;;;;;10.52;93.61;101848.75;2088190;28;27210;-63
2022/06/13 00:48:32;;;;;;;18.50;7.82;;;;;;;10.48;93.92;101848.78;2087745;28;36340;-65
2022/06/13 00:49:40;;;;;;;21.67;8.65;;;;;;;10.46;94.08;101849.66;2062781;28;31432;-64
2022/06/13 00:50:52;;;;;;;18.38;8.90;;;;;;;10.45;93.82;101842.56;2066728;28;20110;-65
2022/06/13 00:52:08;;;;;;;18.10;8.60;;;;;;;10.44;94.42;101840.75;2088076;28;20909;-63
2022/06/13 00:53:19;;;;;;;20.73;8.13;;;;;;;10.41;94.11;101844.38;2079334;28;24431;-64
2022/06/13 00:54:22;;;;;;;20.40;7.38;;;;;;;10.39;94.39;101839.91;2081993;28;26381;-64
2022/06/13 00:55:51;;;;;;;18.45;8.40;;;;;;;10.37;94.14;101841.72;2087811;28;32951;-64
2022/06/13 00:56:53;;;;;;;22.73;7.97;;;;;;;10.32;93.93;101837.28;2079265;28;24875;-64
2022/06/13 00:57:56;;;;;;;21.05;7.88;;;;;;;10.30;94.06;101843.50;2074636;28;24122;-64
2022/06/13 00:59:05;;;;;;;19.98;8.98;;;;;;;10.27;94.57;101838.19;2071648;28;21618;-64
2022/06/13 01:00:13;;;;;;;15.73;8.98;;;;;;;10.25;94.32;101832.84;2073063;28;20046;-64
2022/06/13 01:01:15;;;;;;;23.27;8.68;;;;;;;10.25;94.63;101830.16;2080708;28;28770;-64
2022/06/13 01:02:18;;;;;;;18.63;9.45;;;;;;;10.28;95.86;101830.16;2079715;28;21381;-64
2022/06/13 01:03:24;;;;;;;25.33;10.40;;;;;;;10.26;95.08;101828.38;2071389;28;22949;-64
2022/06/13 01:04:26;;;;;;;19.52;9.23;;;;;;;10.26;95.60;101831.94;2072545;28;21283;-64
2022/06/13 01:05:34;;;;;;;22.63;10.00;;;;;;;10.27;95.13;101832.84;2080234;28;22213;-64
2022/06/13 01:06:49;;;;;;;24.58;9.73;;;;;;;10.31;96.55;101826.59;2088090;28;29604;-64
2022/06/13 01:07:55;;;;;;;21.48;9.63;;;;;;;10.30;96.09;101828.34;2079955;28;20049;-64
2022/06/13 01:08:56;;;;;;;23.38;10.35;;;;;;;10.34;96.49;101829.25;2071972;28;28139;-64
2022/06/13 01:11:23;;;;;;;20.95;9.27;;;;;;;10.28;96.73;101824.81;2074042;28;20045;-64
2022/06/13 01:12:26;;;;;;;20.85;8.60;;;;;;;10.23;95.87;101826.63;2074588;28;27786;-64
2022/06/13 01:14:10;;;;;;;19.88;8.23;;;;;;;10.25;96.64;101815.91;2072079;28;21590;-64
2022/06/13 01:16:03;;;;;;;23.80;10.10;;;;;;;10.28;96.78;101819.44;2086258;28;25290;-64
2022/06/13 01:17:37;;;;;;;21.20;10.20;;;;;;;10.33;97.19;101822.09;2079070;28;28605;-64
2022/06/13 01:19:06;;;;;;;23.00;10.00;;;;;;;10.34;96.73;101822.97;2075508;28;21305;-64
2022/06/13 01:20:32;;;;;;;19.65;9.77;;;;;;;10.38;97.80;101820.28;2075082;28;26172;-64
2022/06/13 01:22:01;;;;;;;24.45;10.45;;;;;;;10.40;97.73;101817.59;2087096;28;20049;-65
2022/06/13 01:23:38;;;;;;;22.30;10.30;;;;;;;10.43;97.61;101823.81;2080031;28;20866;-64
2022/06/13 01:25:11;;;;;;;18.67;9.48;;;;;;;10.41;97.03;101814.91;2079381;28;28024;-65
2022/06/13 01:26:42;;;;;;;23.10;10.52;;;;;;;10.47;97.55;101819.31;2087765;28;31156;-64
2022/06/13 01:27:53;;;;;;;25.58;10.45;;;;;;;10.47;97.05;101814.84;2077469;28;26800;-64
2022/06/13 01:29:18;;;;;;;26.83;10.93;;;;;;;10.52;97.73;101817.50;2088503;28;21646;-64
2022/06/13 01:30:28;;;;;;;23.52;10.60;;;;;;;10.55;97.58;101820.16;2079604;28;22941;-64
2022/06/13 01:32:10;;;;;;;20.65;10.45;;;;;;;10.55;97.39;101812.13;2087700;28;26410;-64
2022/06/13 01:33:39;;;;;;;29.45;10.80;;;;;;;10.53;96.68;101813.91;2079573;28;24818;-63
2022/06/13 01:35:00;;;;;;;21.38;10.93;;;;;;;10.49;96.51;101812.16;2078872;28;20798;-63
2022/06/13 01:36:58;;;;;;;21.10;10.48;;;;;;;10.42;96.39;101814.00;2075135;28;20039;-63
2022/06/13 01:38:31;;;;;;;20.35;8.43;;;;;;;10.39;96.02;101815.81;2079049;28;26635;-66
2022/06/13 01:39:51;;;;;;;18.92;9.48;;;;;;;10.40;97.09;101817.59;2088142;28;20115;-64
2022/06/13 01:41:15;;;;;;;25.90;11.60;;;;;;;10.42;97.40;101821.16;2088166;28;29747;-63
2022/06/13 01:42:50;;;;;;;26.80;12.25;;;;;;;10.42;97.59;101821.16;2088125;28;27657;-64
2022/06/13 01:44:26;;;;;;;22.80;11.98;;;;;;;10.44;97.58;101816.66;2088724;28;20910;-64
2022/06/13 01:45:50;;;;;;;21.38;10.25;;;;;;;10.42;96.77;101819.34;2087627;28;24492;-65
2022/06/13 01:47:11;;;;;;;30.50;11.95;;;;;;;10.46;97.51;101814.84;2079335;28;28592;-63
2022/06/13 01:48:57;;;;;;;24.98;11.38;;;;;;;10.46;96.83;101814.84;2082509;28;21396;-64
2022/06/13 01:50:38;;;;;;;25.65;11.45;;;;;;;10.54;97.85;101810.34;2079029;28;35009;-64
2022/06/13 01:52:03;;;;;;;25.25;11.00;;;;;;;10.53;96.59;101811.22;2070386;28;23554;-65
2022/06/13 01:53:37;;;;;;;19.60;10.23;;;;;;;10.51;96.39;101815.72;2062997;28;21501;-65
2022/06/13 01:54:54;;;;;;;27.25;11.60;;;;;;;10.53;96.54;101805.00;2067135;28;23676;-66
2022/06/13 01:56:10;;;;;;;30.33;11.90;;;;;;;10.53;97.04;101816.59;2078367;28;20115;-64
2022/06/13 01:57:39;;;;;;;21.85;10.52;;;;;;;10.53;96.33;101813.91;2081691;28;29209;-66
2022/06/13 01:59:18;;;;;;;18.25;8.82;;;;;;;10.52;96.36;101806.78;2081261;28;28550;-64
2022/06/13 02:00:29;;;;;;;25.25;12.35;;;;;;;10.57;97.02;101807.66;2080766;28;39278;-66
2022/06/13 02:01:44;;;;;;;25.08;11.63;;;;;;;10.55;96.96;101806.78;2063469;28;36284;-63
2022/06/13 02:03:28;;;;;;;22.70;9.73;;;;;;;10.56;96.91;101808.53;2060816;28;26085;-66
2022/06/13 02:04:42;;;;;;;25.20;11.68;;;;;;;10.61;97.26;101806.72;2079748;28;35712;-64
2022/06/13 02:06:14;;;;;;;20.58;10.85;;;;;;;10.58;96.78;101806.72;2081148;28;24035;-64
2022/06/13 02:07:25;;;;;;;24.20;11.65;;;;;;;10.61;97.04;101804.03;2080972;28;23523;-62
2022/06/13 02:08:38;;;;;;;21.02;10.65;;;;;;;10.60;97.10;101798.69;2072072;28;36682;-64
2022/06/13 02:09:58;;;;;;;19.90;10.50;;;;;;;10.57;97.02;101810.31;2066803;28;20105;-64
2022/06/13 02:11:16;;;;;;;23.27;11.20;;;;;;;10.55;96.76;101804.09;2067954;28;24745;-64
2022/06/13 02:12:20;;;;;;;20.63;10.35;;;;;;;10.53;96.51;101808.56;2068131;28;22115;-64
2022/06/13 02:13:37;;;;;;;27.98;11.05;;;;;;;10.49;96.73;101805.00;2066507;28;27001;-64
2022/06/13 02:14:49;;;;;;;21.95;10.75;;;;;;;10.47;96.50;101803.25;2066375;28;31277;-64
2022/06/13 02:15:58;;;;;;;21.10;10.57;;;;;;;10.44;96.85;101814.00;2066934;28;22936;-64
2022/06/13 02:17:14;;;;;;;17.30;9.57;;;;;;;10.45;97.69;101815.78;2067148;28;20832;-64
2022/06/13 02:18:29;;;;;;;22.23;10.40;;;;;;;10.43;96.59;101822.94;2074931;28;26552;-64
2022/06/13 02:19:56;;;;;;;15.93;9.88;;;;;;;10.42;96.94;101822.03;2080721;28;29418;-64
2022/06/13 02:21:12;;;;;;;18.52;9.52;;;;;;;10.43;96.83;101828.28;2064024;28;21216;-64
2022/06/13 02:22:25;;;;;;;27.70;11.30;;;;;;;10.44;97.22;101820.22;2066128;28;31567;-64
2022/06/13 02:23:35;;;;;;;29.27;12.10;;;;;;;10.50;97.70;101816.63;2075967;28;22823;-64
2022/06/13 02:24:49;;;;;;;23.75;11.68;;;;;;;10.51;97.40;101815.72;2082968;28;29628;-64
2022/06/13 02:26:11;;;;;;;25.40;11.60;;;;;;;10.49;96.96;101804.13;2080259;28;28016;-64
2022/06/13 02:27:15;;;;;;;25.38;11.23;;;;;;;10.55;97.26;101804.09;2076317;28;38180;-64
2022/06/13 02:28:32;;;;;;;21.58;11.57;;;;;;;10.56;97.12;101799.63;2080951;28;21761;-64
2022/06/13 02:29:45;;;;;;;29.95;11.30;;;;;;;10.55;97.25;101798.75;2089277;28;25052;-65
2022/06/13 02:30:56;;;;;;;21.05;11.05;;;;;;;10.55;97.03;101806.78;2080580;28;26549;-66
2022/06/13 02:32:24;;;;;;;16.60;9.40;;;;;;;10.52;96.88;101808.59;2083823;28;20041;-66
2022/06/13 02:33:34;;;;;;;19.35;10.60;;;;;;;10.53;97.08;101805.88;2089174;28;26413;-66
2022/06/13 02:34:50;;;;;;;25.83;10.80;;;;;;;10.53;97.18;101808.56;2088708;28;35566;-66
2022/06/13 02:36:04;;;;;;;21.38;10.70;;;;;;;10.50;96.66;101804.13;2089762;28;20233;-65
2022/06/13 02:37:15;;;;;;;22.13;11.02;;;;;;;10.54;96.95;101801.44;2080318;28;29474;-65
2022/06/13 02:38:26;;;;;;;24.20;10.48;;;;;;;10.52;97.03;101808.59;2082932;28;28054;-65
2022/06/13 02:39:49;;;;;;;25.77;10.15;;;;;;;10.52;97.17;101814.81;2089058;28;22194;-65
2022/06/13 02:40:59;;;;;;;20.60;10.95;;;;;;;10.50;97.06;101812.16;2080603;28;21012;-65
2022/06/13 02:42:19;;;;;;;25.55;11.52;;;;;;;10.56;97.27;101813.88;2076043;28;22287;-65
2022/06/13 02:43:34;;;;;;;;;;;;;;;10.51;96.98;101815.72;2083858;28;38564;-65
2022/06/13 02:44:59;;;;;;;22.27;10.98;;;;;;;10.54;97.25;101820.16;2088531;28;33924;-65
2022/06/13 02:46:23;;;;;;;18.05;9.25;;;;;;;10.52;97.41;101817.50;2080720;28;21094;-65
2022/06/13 02:47:35;;;;;;;24.13;10.10;;;;;;;10.53;97.01;101818.38;2085637;28;22566;-65
2022/06/13 02:48:45;;;;;;;21.75;10.55;;;;;;;10.56;97.43;101807.66;2080074;28;35080;-65
2022/06/13 02:50:29;;;;;;;18.42;10.23;;;;;;;10.56;97.11;101808.53;2065716;28;39996;-65
2022/06/13 02:52:37;;;;;;;16.50;9.32;;;;;;;10.55;96.93;101814.81;2083824;28;38130;-65
2022/06/13 02:53:53;;;;;;;22.38;9.93;;;;;;;10.60;96.45;101812.94;2064368;28;21298;-65
2022/06/13 02:55:03;;;;;;;26.00;11.25;;;;;;;10.64;97.09;101805.78;2055937;28;20138;-65
2022/06/13 02:57:23;;;;;;;26.90;10.95;;;;;;;10.64;96.73;101809.38;2050328;28;20900;-65
2022/06/13 02:58:23;;;;;;;20.88;10.23;;;;;;;10.65;96.18;101803.09;2062814;28;28626;-65
2022/06/13 02:59:56;;;;;;;28.77;9.60;;;;;;;10.68;96.57;101799.50;2083378;28;22204;-65
2022/06/13 03:01:12;;;;;;;18.35;9.23;;;;;;;10.71;96.62;101799.47;2080564;28;25742;-65
2022/06/13 03:02:23;;;;;;;22.17;9.68;;;;;;;10.74;96.01;101806.59;2077749;28;32099;-65
2022/06/13 03:03:41;;;;;;;20.90;8.88;;;;;;;10.73;96.25;101808.41;2073692;28;35688;-65
2022/06/13 03:05:08;;;;;;;20.00;9.88;;;;;;;10.79;96.21;101815.47;2075863;28;20143;-65
2022/06/13 03:06:31;;;;;;;20.40;9.10;;;;;;;10.80;95.87;101811.88;2083518;28;20041;-65
2022/06/13 03:08:00;;;;;;;22.58;9.50;;;;;;;10.82;95.77;101810.06;2080361;28;28492;-65
2022/06/13 03:09:33;;;;;;;21.27;9.38;;;;;;;10.85;95.32;101810.03;2084587;28;20854;-65
2022/06/13 03:10:44;;;;;;;24.45;8.98;;;;;;;10.85;95.34;101808.25;2072276;28;20050;-65
2022/06/13 03:12:11;;;;;;;20.45;9.75;;;;;;;10.86;95.27;101799.31;2084859;28;34679;-65
2022/06/13 03:13:46;;;;;;;17.30;8.88;;;;;;;10.86;94.71;101796.63;2088480;28;37855;-65
2022/06/13 03:15:14;;;;;;;23.50;9.32;;;;;;;10.86;94.37;101793.97;2088968;28;22776;-64
2022/06/13 03:16:32;;;;;;;18.70;8.73;;;;;;;10.85;94.88;101788.63;2079376;28;34413;-65
2022/06/13 03:17:46;;;;;;;20.48;8.85;;;;;;;10.85;94.79;101786.81;2073997;28;31399;-65
2022/06/13 03:18:55;;;;;;;18.83;8.40;;;;;;;10.86;94.81;101775.19;2083164;28;20096;-65
2022/06/13 03:20:33;;;;;;;20.25;8.05;;;;;;;10.86;94.36;101771.66;2079724;28;25351;-65
2022/06/13 03:21:59;;;;;;;17.95;7.53;;;;;;;10.85;94.55;101776.09;2086713;28;20046;-65
2022/06/13 03:23:27;;;;;;;18.23;8.38;;;;;;;10.85;94.43;101781.44;2080025;28;25548;-65
2022/06/13 03:24:53;;;;;;;15.50;7.85;;;;;;;10.84;94.39;101784.19;2077856;28;25915;-65
2022/06/13 03:26:11;;;;;;;18.00;8.80;;;;;;;10.85;94.29;101785.94;2082897;28;29987;-65
2022/06/13 03:27:27;;;;;;;18.40;7.80;;;;;;;10.83;94.30;101780.59;2080034;28;21317;-65
2022/06/13 03:29:36;;;;;;;15.68;7.15;;;;;;;10.85;94.28;101789.50;2074721;28;25373;-65
2022/06/13 03:30:47;;;;;;;16.85;8.23;;;;;;;10.86;93.97;101788.59;2079353;28;20839;-66
2022/06/13 03:31:56;;;;;;;20.45;7.68;;;;;;;10.88;94.17;101783.22;2079369;28;38741;-66
2022/06/13 03:34:43;;;;;;;11.98;6.80;;;;;;;10.92;93.71;101784.97;2077019;28;20050;-63
2022/06/13 03:35:49;;;;;;;12.82;6.60;;;;;;;10.94;93.80;101793.88;2077012;28;35287;-66
2022/06/13 03:37:04;;;;;;;15.35;7.40;;;;;;;10.95;94.07;101790.28;2073552;28;20180;-66
2022/06/13 03:38:12;;;;;;;14.77;6.70;;;;;;;10.95;93.47;101789.41;2073335;28;40479;-66
2022/06/13 03:39:34;;;;;;;17.85;8.25;;;;;;;10.99;94.12;101784.00;2073827;28;27898;-66
2022/06/13 03:40:43;;;;;;;20.00;7.75;;;;;;;11.01;93.66;101789.34;2075519;28;20100;-66
2022/06/13 03:41:51;;;;;;;14.57;7.15;;;;;;;11.03;93.99;101790.22;2081952;28;24302;-66
2022/06/13 03:43:18;;;;;;;20.98;8.15;;;;;;;11.05;93.63;101786.63;2080281;28;21080;-64
2022/06/13 03:45:20;;;;;;;17.42;8.13;;;;;;;11.08;93.17;101791.03;2075355;28;33913;-65
2022/06/13 03:46:32;;;;;;;17.48;7.22;;;;;;;11.10;93.37;101794.59;2071128;28;26849;-63
2022/06/13 03:47:43;;;;;;;16.80;7.05;;;;;;;11.13;93.32;101788.31;2071513;28;24312;-64
2022/06/13 03:48:59;;;;;;;16.08;7.80;;;;;;;11.16;93.32;101791.84;2078733;28;25170;-66
2022/06/13 03:50:15;;;;;;;20.08;8.07;;;;;;;11.19;93.58;101794.47;2074571;28;21288;-66
2022/06/13 03:51:44;;;;;;;16.67;7.00;;;;;;;11.23;92.95;101788.19;2084676;28;20833;-65
2022/06/13 03:53:02;;;;;;;15.70;7.10;;;;;;;11.26;92.88;101795.31;2088205;28;22870;-64
2022/06/13 03:54:22;;;;;;;17.83;7.03;;;;;;;11.31;92.75;101793.47;2088719;28;24213;-64
2022/06/13 03:55:38;;;;;;;17.75;7.50;;;;;;;11.33;92.71;101788.97;2079633;28;35651;-64
2022/06/13 03:56:58;;;;;;;16.38;7.47;;;;;;;11.39;92.63;101794.22;2075228;28;20899;-64
2022/06/13 03:58:24;;;;;;;19.83;7.68;;;;;;;11.46;92.17;101789.69;2076095;28;20086;-65
2022/06/13 03:59:41;;;;;;;16.88;7.20;;;;;;;11.53;91.43;101785.13;2085478;28;22354;-64
2022/06/13 04:01:00;;;;;;;16.33;6.68;;;;;;;11.60;91.30;101782.34;2080117;28;22640;-64
2022/06/13 04:02:12;;;;;;;13.75;6.78;;;;;;;11.72;91.15;101788.44;2075102;28;20160;-64
2022/06/13 04:03:17;;;;;;;17.10;6.85;;;;;;;11.78;90.31;101781.19;2083472;28;36781;-64
2022/06/13 04:04:30;;;;;;;14.50;6.45;;;;;;;11.85;90.03;101782.88;2079580;28;28375;-64
2022/06/13 04:05:41;;;;;;;13.55;6.07;;;;;;;11.88;89.50;101778.38;2074361;28;20042;-64
2022/06/13 04:06:43;;;;;;;13.68;5.78;;;;;;;11.91;89.81;101783.75;2074155;28;22039;-64
2022/06/13 04:07:45;;;;;;;16.55;6.45;;;;;;;11.88;89.43;101781.06;2081041;28;20143;-64
2022/06/13 04:08:47;;;;;;;14.82;6.00;;;;;;;11.91;89.25;101787.31;2079694;28;29146;-64
2022/06/13 04:10:15;;;;;;;15.23;6.75;;;;;;;11.92;89.30;101778.34;2063035;28;34913;-64
2022/06/13 04:11:28;;;;;;;14.18;6.20;;;;;;;11.92;89.45;101782.84;2079031;28;22067;-64
2022/06/13 04:13:09;;;;;;;18.88;6.57;;;;;;;11.91;89.22;101789.97;2079088;28;30915;-64
2022/06/13 04:14:29;;;;;;;15.73;6.07;;;;;;;11.90;89.44;101782.88;2085516;28;20034;-65
2022/06/13 04:15:55;;;;;;;16.20;6.22;;;;;;;11.92;89.57;101790.91;2088478;28;24916;-64
2022/06/13 04:17:18;;;;;;;13.75;5.43;;;;;;;11.91;89.34;101784.63;2087894;28;38244;-65
2022/06/13 04:19:00;;;;;;;14.38;6.43;;;;;;;11.92;89.02;101794.47;2089031;28;20068;-65
2022/06/13 04:20:17;;;;;;;13.48;6.63;;;;;;;11.88;89.30;101790.03;2088298;28;28266;-65
2022/06/13 04:21:49;;;;;;;21.40;7.65;;;;;;;11.89;89.34;101793.59;2088434;28;22504;-64
2022/06/13 04:23:02;;;;;;;13.88;6.03;;;;;;;11.90;89.07;101784.59;2088053;28;36989;-64
2022/06/13 04:24:32;;;;;;;17.55;6.53;;;;;;;11.92;89.24;101790.91;2080081;28;21386;-64
2022/06/13 04:25:47;;;;;;;12.50;5.18;;;;;;;11.92;89.43;101785.53;2085683;28;20038;-64
2022/06/13 04:27:26;;;;;;;14.57;6.53;;;;;;;11.92;89.47;101796.25;2079836;28;22974;-64
2022/06/13 04:29:01;;;;;;;11.13;4.80;;;;;;;11.97;89.42;101797.06;2047081;28;22129;-63
2022/06/13 04:30:26;;;;;;;15.60;6.40;;;;;;;11.98;88.85;101797.03;2046666;28;29212;-64
2022/06/13 04:31:29;;;;;;;15.75;6.50;;;;;;;12.01;89.00;101796.13;2046792;28;30048;-64
2022/06/13 04:33:14;;;;;;;11.65;5.40;;;;;;;12.02;88.91;101793.41;2046587;28;22089;-64
2022/06/13 04:34:23;;;;;;;13.88;5.82;;;;;;;12.06;89.02;101782.59;2063590;28;28821;-64
2022/06/13 04:35:31;;;;;;;14.23;5.75;;;;;;;12.09;88.72;101788.81;2078157;28;20054;-64
2022/06/13 04:36:35;;;;;;;13.40;5.45;;;;;;;12.11;88.30;101794.16;2079604;28;28902;-64
2022/06/13 04:37:40;;;;;;;12.63;6.65;;;;;;;12.13;88.55;101800.41;2080059;28;26592;-64
2022/06/13 04:38:52;;;;;;;13.27;5.13;;;;;;;12.16;88.39;101795.00;2086955;28;30348;-65
2022/06/13 04:40:00;;;;;;;12.80;4.97;;;;;;;12.18;88.50;101799.41;2079306;28;27677;-64
2022/06/13 04:41:05;;;;;;;14.98;5.30;;;;;;;12.22;88.61;101802.94;2073456;28;27588;-64
2022/06/13 04:42:10;;;;;;;14.15;5.65;;;;;;;12.22;88.60;101802.94;2072697;28;21990;-65
2022/06/13 04:43:17;;;;;;;16.65;5.72;;;;;;;12.27;88.44;101797.50;2072697;28;26033;-64
2022/06/13 04:44:25;;;;;;;15.73;6.28;;;;;;;12.27;87.92;101798.38;2073036;28;20140;-65
2022/06/13 04:45:33;;;;;;;17.48;5.85;;;;;;;12.31;88.07;101793.84;2080206;28;35252;-65
2022/06/13 04:46:37;;;;;;;13.40;5.45;;;;;;;12.34;88.02;101789.31;2071214;28;35388;-65
2022/06/13 04:47:41;;;;;;;15.02;5.63;;;;;;;12.35;87.93;101791.09;2064916;28;20962;-64
2022/06/13 04:48:50;;;;;;;12.85;5.30;;;;;;;12.40;87.57;101796.41;2072040;28;27347;-64
2022/06/13 04:49:58;;;;;;;11.80;5.35;;;;;;;12.43;87.92;101796.31;2072103;28;26614;-64
2022/06/13 04:51:07;;;;;;;14.20;5.50;;;;;;;12.46;87.77;101796.28;2072239;28;39970;-64
2022/06/13 04:52:23;;;;;;;15.82;5.53;;;;;;;12.48;87.60;101790.88;2073728;28;20081;-64
2022/06/13 04:53:52;;;;;;;15.15;6.28;;;;;;;12.49;87.71;101788.19;2074152;28;21992;-64
2022/06/13 04:55:16;;;;;;;16.10;5.78;;;;;;;12.51;86.94;101791.72;2084986;28;20123;-64
2022/06/13 04:56:20;;;;;;;15.30;5.03;;;;;;;12.53;86.68;101789.91;2079132;28;39074;-65
2022/06/13 04:57:22;;;;;;;15.27;5.97;;;;;;;12.58;87.19;101796.06;2072875;28;40663;-65
2022/06/13 04:58:39;;;;;;;13.90;5.45;;;;;;;12.57;87.15;101791.59;2071585;28;31524;-64
2022/06/13 04:59:42;;;;;;;15.48;5.50;;;;;;;12.59;87.48;101794.28;2065425;28;20035;-64
2022/06/13 05:00:46;;;;;;;11.73;4.10;;;;;;;12.63;87.04;101795.09;2073937;28;20047;-65
2022/06/13 05:01:50;;;;;;;13.38;5.22;;;;;;;12.66;86.80;101793.25;2079358;28;22744;-64
2022/06/13 05:02:55;;;;;;;13.82;5.57;;;;;;;12.67;86.70;101781.59;2079326;28;30344;-64
2022/06/13 05:04:02;;;;;;;12.30;5.45;;;;;;;12.67;87.18;101789.66;2079576;28;24366;-64
2022/06/13 05:05:08;;;;;;;16.73;5.43;;;;;;;12.71;86.78;101794.06;2080890;28;23754;-64
2022/06/13 05:06:30;;;;;;;12.73;5.22;;;;;;;12.72;86.41;101789.56;2079628;28;21790;-65
2022/06/13 05:07:36;;;;;;;12.95;5.50;;;;;;;12.76;86.15;101788.59;2083051;28;29414;-64
2022/06/13 05:08:40;;;;;;;14.48;5.05;;;;;;;12.83;86.63;101792.03;2079556;28;22552;-64
2022/06/13 05:10:01;;;;;;;16.63;5.93;;;;;;;12.85;86.17;101791.13;2070783;28;31532;-64
2022/06/13 05:11:22;;;;;;;14.43;5.72;;;;;;;12.90;85.58;101786.56;2074683;28;29443;-65
2022/06/13 05:12:43;;;;;;;10.75;4.22;;;;;;;12.96;85.81;101789.09;2076316;28;20082;-64
2022/06/13 05:13:51;;;;;;;11.80;4.68;;;;;;;13.01;85.04;101789.03;2083667;28;23869;-64
2022/06/13 05:14:56;;;;;;;11.68;4.90;;;;;;;13.04;84.93;101790.75;2071413;28;22330;-65
2022/06/13 05:17:03;;;;;;;11.70;5.03;;;;;;;13.13;84.69;101790.56;2072776;28;21807;-65
2022/06/13 05:18:30;;;;;;;14.05;5.18;;;;;;;13.23;84.54;101796.66;2054965;28;20165;-64
2022/06/13 05:20:08;;;;;;;12.40;5.15;;;;;;;13.28;84.09;101800.13;2054022;28;35185;-64
2022/06/13 05:21:19;;;;;;;14.43;5.15;;;;;;;13.35;83.91;101799.13;2046216;28;34872;-64
2022/06/13 05:22:39;;;;;;;9.60;4.70;;;;;;;13.48;83.89;101795.28;2052197;28;22746;-64
2022/06/13 05:24:37;;;;;;;11.82;4.60;;;;;;;13.50;82.51;101796.13;2077429;28;20050;-64
2022/06/13 05:25:44;;;;;;;13.50;4.57;;;;;;;13.55;82.64;101801.41;2079452;28;30300;-64
2022/06/13 05:26:46;;;;;;;11.77;4.57;;;;;;;13.62;82.23;101794.97;2070803;28;30260;-64
2022/06/13 05:27:48;;;;;;;10.68;4.43;;;;;;;13.74;81.75;101796.50;2072327;28;20953;-64
2022/06/13 05:28:50;;;;;;;12.10;4.90;;;;;;;13.90;81.14;101788.97;2080220;28;20042;-64
2022/06/13 05:29:51;;;;;;;12.13;4.40;;;;;;;14.06;80.98;101795.75;2081318;28;27670;-64
2022/06/13 05:30:57;;;;;;;8.75;4.25;;;;;;;14.16;79.96;101795.53;2080985;28;37069;-64
2022/06/13 05:32:04;;;;;;;13.90;4.40;;;;;;;14.35;79.51;101804.94;2072713;28;20081;-64
2022/06/13 05:33:14;;;;;;;12.40;5.00;;;;;;;14.55;79.27;101800.84;2065732;28;20039;-64
2022/06/13 05:34:30;;;;;;;14.80;4.63;;;;;;;14.75;77.52;101801.28;2074254;28;21269;-64
2022/06/13 05:35:35;;;;;;;13.05;4.65;;;;;;;14.96;76.94;101810.56;2071627;28;39685;-64
2022/06/13 05:36:37;;;;;;;12.65;4.13;;;;;;;15.19;76.08;101811.75;2074493;28;20128;-64
2022/06/13 05:37:39;;;;;;;12.05;4.43;;;;;;;15.74;75.36;101814.63;2080699;28;38332;-64
2022/06/13 05:39:00;;;;;;;9.13;3.67;;;;;;;15.93;71.65;101807.75;2072682;28;31575;-65
2022/06/13 05:40:02;;;;;;;12.10;3.88;;;;;;;16.19;70.97;101814.19;2058290;28;28467;-64
2022/06/13 05:41:04;;;;;;;11.02;3.25;;;;;;;16.46;71.13;101809.66;2066181;28;37483;-65
2022/06/13 05:42:07;;;;;;;9.90;3.65;;;;;;;16.55;70.03;101801.25;2072763;28;20987;-65
2022/06/13 05:43:12;;;;;;;8.77;3.85;;;;;;;16.51;70.56;101813.09;2072303;28;28614;-65
2022/06/13 05:44:14;;;;;;;10.95;3.88;;;;;;;16.48;69.30;101804.22;2073475;28;24882;-65
2022/06/13 05:45:22;;;;;;;12.40;3.72;;;;;;;16.73;69.62;101806.97;2080695;28;23417;-65
2022/06/13 05:46:33;;;;;;;9.85;3.65;;;;;;;16.59;69.06;101804.72;2072437;28;31587;-64
2022/06/13 05:47:35;;;;;;;10.93;3.90;;;;;;;16.88;69.29;101805.56;2066147;28;22704;-64
2022/06/13 05:48:37;;;;;;;11.63;3.67;;;;;;;16.95;68.40;101802.56;2072532;28;31765;-64
2022/06/13 05:49:38;;;;;;;9.93;3.30;;;;;;;16.91;67.97;101803.63;2081252;28;20554;-64